sensor_id;sensor_type;location;lat;lon;timestamp;P1;durP1;ratioP1;P2;durP2;ratioP2
61003;SDS011;46889;37.310;13.582;2023-03-01T00:02:05;3.85;;;1.00;;
61003;SDS011;46889;37.310;13.582;2023-03-01T00:04:32;8.55;;;1.17;;
61003;SDS011;46889;37.310;13.582;2023-03-01T00:07:00;7.25;;;1.15;;
61003;SDS011;46889;37.310;13.582;2023-03-01T00:09:27;4.72;;;1.17;;
61003;SDS011;46889;37.310;13.582;2023-03-01T00:11:53;2.30;;;0.82;;
61003;SDS011;46889;37.310;13.582;2023-03-01T00:14:19;4.07;;;1.20;;
61003;SDS011;46889;37.310;13.582;2023-03-01T00:19:13;3.83;;;0.93;;
61003;SDS011;46889;37.310;13.582;2023-03-01T00:21:41;2.88;;;1.10;;
61003;SDS011;46889;37.310;13.582;2023-03-01T00:24:09;6.30;;;1.25;;
61003;SDS011;46889;37.310;13.582;2023-03-01T00:26:37;2.63;;;1.10;;
61003;SDS011;46889;37.310;13.582;2023-03-01T00:29:03;2.83;;;1.02;;
61003;SDS011;46889;37.310;13.582;2023-03-01T00:31:30;3.17;;;1.00;;
61003;SDS011;46889;37.310;13.582;2023-03-01T00:34:00;2.90;;;0.90;;
61003;SDS011;46889;37.310;13.582;2023-03-01T00:36:30;7.20;;;1.38;;
61003;SDS011;46889;37.310;13.582;2023-03-01T00:39:02;3.47;;;0.88;;
61003;SDS011;46889;37.310;13.582;2023-03-01T00:41:30;1.80;;;0.80;;
61003;SDS011;46889;37.310;13.582;2023-03-01T00:43:57;2.57;;;0.90;;
61003;SDS011;46889;37.310;13.582;2023-03-01T00:46:24;1.63;;;0.90;;
61003;SDS011;46889;37.310;13.582;2023-03-01T00:48:51;2.88;;;1.00;;
61003;SDS011;46889;37.310;13.582;2023-03-01T00:51:19;2.75;;;0.98;;
61003;SDS011;46889;37.310;13.582;2023-03-01T00:53:52;5.72;;;1.00;;
61003;SDS011;46889;37.310;13.582;2023-03-01T00:56:22;5.57;;;1.10;;
61003;SDS011;46889;37.310;13.582;2023-03-01T00:58:49;2.00;;;1.02;;
61003;SDS011;46889;37.310;13.582;2023-03-01T01:01:23;6.15;;;1.00;;
61003;SDS011;46889;37.310;13.582;2023-03-01T01:04:00;1.77;;;0.80;;
61003;SDS011;46889;37.310;13.582;2023-03-01T01:06:35;2.97;;;0.90;;
61003;SDS011;46889;37.310;13.582;2023-03-01T01:09:04;6.80;;;1.05;;
61003;SDS011;46889;37.310;13.582;2023-03-01T01:11:31;3.30;;;1.05;;
61003;SDS011;46889;37.310;13.582;2023-03-01T01:14:00;4.28;;;1.17;;
61003;SDS011;46889;37.310;13.582;2023-03-01T01:16:26;2.42;;;0.95;;
61003;SDS011;46889;37.310;13.582;2023-03-01T01:21:20;2.85;;;1.10;;
61003;SDS011;46889;37.310;13.582;2023-03-01T01:23:50;5.63;;;1.00;;
61003;SDS011;46889;37.310;13.582;2023-03-01T01:26:23;3.08;;;1.60;;
61003;SDS011;46889;37.310;13.582;2023-03-01T01:28:51;2.58;;;1.10;;
61003;SDS011;46889;37.310;13.582;2023-03-01T01:31:18;2.95;;;1.15;;
61003;SDS011;46889;37.310;13.582;2023-03-01T01:33:46;2.95;;;0.90;;
61003;SDS011;46889;37.310;13.582;2023-03-01T01:36:13;3.08;;;1.00;;
61003;SDS011;46889;37.310;13.582;2023-03-01T01:38:39;1.43;;;0.80;;
61003;SDS011;46889;37.310;13.582;2023-03-01T01:41:09;4.45;;;1.00;;
61003;SDS011;46889;37.310;13.582;2023-03-01T01:43:38;2.65;;;1.02;;
61003;SDS011;46889;37.310;13.582;2023-03-01T01:46:16;7.72;;;1.20;;
61003;SDS011;46889;37.310;13.582;2023-03-01T01:49:05;4.18;;;1.02;;
61003;SDS011;46889;37.310;13.582;2023-03-01T01:51:47;4.45;;;1.13;;
61003;SDS011;46889;37.310;13.582;2023-03-01T01:54:30;5.25;;;1.05;;
61003;SDS011;46889;37.310;13.582;2023-03-01T01:57:07;3.03;;;0.95;;
61003;SDS011;46889;37.310;13.582;2023-03-01T01:59:39;3.47;;;0.90;;
61003;SDS011;46889;37.310;13.582;2023-03-01T02:02:10;1.95;;;1.00;;
61003;SDS011;46889;37.310;13.582;2023-03-01T02:04:42;2.08;;;1.00;;
61003;SDS011;46889;37.310;13.582;2023-03-01T02:07:16;7.95;;;1.02;;
61003;SDS011;46889;37.310;13.582;2023-03-01T02:09:48;5.22;;;1.02;;
61003;SDS011;46889;37.310;13.582;2023-03-01T02:12:19;3.65;;;1.08;;
61003;SDS011;46889;37.310;13.582;2023-03-01T02:14:48;3.20;;;0.90;;
61003;SDS011;46889;37.310;13.582;2023-03-01T02:17:17;3.45;;;1.20;;
61003;SDS011;46889;37.310;13.582;2023-03-01T02:19:51;2.05;;;0.95;;
61003;SDS011;46889;37.310;13.582;2023-03-01T02:22:44;2.40;;;1.00;;
61003;SDS011;46889;37.310;13.582;2023-03-01T02:25:35;5.40;;;1.33;;
61003;SDS011;46889;37.310;13.582;2023-03-01T02:30:50;1.98;;;0.90;;
61003;SDS011;46889;37.310;13.582;2023-03-01T02:33:36;1.90;;;1.08;;
61003;SDS011;46889;37.310;13.582;2023-03-01T02:36:05;4.93;;;1.33;;
61003;SDS011;46889;37.310;13.582;2023-03-01T02:38:34;5.47;;;1.20;;
61003;SDS011;46889;37.310;13.582;2023-03-01T02:41:01;5.78;;;1.10;;
61003;SDS011;46889;37.310;13.582;2023-03-01T02:43:31;3.85;;;1.13;;
61003;SDS011;46889;37.310;13.582;2023-03-01T02:45:59;3.92;;;1.30;;
61003;SDS011;46889;37.310;13.582;2023-03-01T02:48:43;3.38;;;1.10;;
61003;SDS011;46889;37.310;13.582;2023-03-01T02:51:23;4.25;;;1.10;;
61003;SDS011;46889;37.310;13.582;2023-03-01T02:56:52;6.32;;;1.20;;
61003;SDS011;46889;37.310;13.582;2023-03-01T02:59:20;2.53;;;1.20;;
61003;SDS011;46889;37.310;13.582;2023-03-01T03:01:49;3.03;;;1.20;;
61003;SDS011;46889;37.310;13.582;2023-03-01T03:04:17;4.33;;;1.27;;
61003;SDS011;46889;37.310;13.582;2023-03-01T03:06:44;4.10;;;1.10;;
61003;SDS011;46889;37.310;13.582;2023-03-01T03:09:11;4.32;;;1.10;;
61003;SDS011;46889;37.310;13.582;2023-03-01T03:11:38;2.80;;;1.30;;
61003;SDS011;46889;37.310;13.582;2023-03-01T03:14:06;3.80;;;1.05;;
61003;SDS011;46889;37.310;13.582;2023-03-01T03:16:41;3.45;;;1.15;;
61003;SDS011;46889;37.310;13.582;2023-03-01T03:19:09;2.38;;;1.20;;
61003;SDS011;46889;37.310;13.582;2023-03-01T03:21:37;5.53;;;1.27;;
61003;SDS011;46889;37.310;13.582;2023-03-01T03:24:03;2.75;;;1.00;;
61003;SDS011;46889;37.310;13.582;2023-03-01T03:28:55;3.53;;;1.10;;
61003;SDS011;46889;37.310;13.582;2023-03-01T03:31:22;2.47;;;1.00;;
61003;SDS011;46889;37.310;13.582;2023-03-01T03:33:48;2.70;;;1.10;;
61003;SDS011;46889;37.310;13.582;2023-03-01T03:36:15;2.95;;;1.20;;
61003;SDS011;46889;37.310;13.582;2023-03-01T03:38:43;3.70;;;1.35;;
61003;SDS011;46889;37.310;13.582;2023-03-01T03:41:10;1.88;;;0.95;;
61003;SDS011;46889;37.310;13.582;2023-03-01T03:43:37;4.13;;;1.00;;
61003;SDS011;46889;37.310;13.582;2023-03-01T03:46:05;4.40;;;1.35;;
61003;SDS011;46889;37.310;13.582;2023-03-01T03:48:35;1.83;;;0.90;;
61003;SDS011;46889;37.310;13.582;2023-03-01T03:51:03;1.80;;;1.00;;
61003;SDS011;46889;37.310;13.582;2023-03-01T03:53:33;2.13;;;1.00;;
61003;SDS011;46889;37.310;13.582;2023-03-01T03:55:59;3.97;;;1.13;;
61003;SDS011;46889;37.310;13.582;2023-03-01T04:00:52;3.45;;;1.05;;
61003;SDS011;46889;37.310;13.582;2023-03-01T04:03:25;1.95;;;0.70;;
61003;SDS011;46889;37.310;13.582;2023-03-01T04:05:52;2.63;;;0.90;;
61003;SDS011;46889;37.310;13.582;2023-03-01T04:08:21;5.00;;;1.20;;
61003;SDS011;46889;37.310;13.582;2023-03-01T04:10:49;2.40;;;1.10;;
61003;SDS011;46889;37.310;13.582;2023-03-01T04:13:20;2.78;;;0.90;;
61003;SDS011;46889;37.310;13.582;2023-03-01T04:15:50;4.93;;;1.00;;
61003;SDS011;46889;37.310;13.582;2023-03-01T04:18:18;3.00;;;1.10;;
61003;SDS011;46889;37.310;13.582;2023-03-01T04:20:46;3.30;;;1.10;;
61003;SDS011;46889;37.310;13.582;2023-03-01T04:23:17;3.63;;;0.93;;
61003;SDS011;46889;37.310;13.582;2023-03-01T04:25:47;7.53;;;1.30;;
61003;SDS011;46889;37.310;13.582;2023-03-01T04:28:24;3.85;;;1.00;;
61003;SDS011;46889;37.310;13.582;2023-03-01T04:30:54;3.03;;;1.00;;
61003;SDS011;46889;37.310;13.582;2023-03-01T04:33:27;2.83;;;1.00;;
61003;SDS011;46889;37.310;13.582;2023-03-01T04:35:53;2.13;;;0.90;;
61003;SDS011;46889;37.310;13.582;2023-03-01T04:38:19;2.45;;;1.10;;
61003;SDS011;46889;37.310;13.582;2023-03-01T04:40:49;2.92;;;1.02;;
61003;SDS011;46889;37.310;13.582;2023-03-01T04:43:16;4.60;;;1.00;;
61003;SDS011;46889;37.310;13.582;2023-03-01T04:45:42;3.85;;;1.00;;
61003;SDS011;46889;37.310;13.582;2023-03-01T04:48:09;5.35;;;1.00;;
61003;SDS011;46889;37.310;13.582;2023-03-01T04:50:35;4.32;;;0.93;;
61003;SDS011;46889;37.310;13.582;2023-03-01T04:53:01;6.32;;;1.10;;
61003;SDS011;46889;37.310;13.582;2023-03-01T04:55:28;4.10;;;1.13;;
61003;SDS011;46889;37.310;13.582;2023-03-01T04:57:55;1.85;;;0.77;;
61003;SDS011;46889;37.310;13.582;2023-03-01T05:00:21;4.60;;;1.10;;
61003;SDS011;46889;37.310;13.582;2023-03-01T05:02:48;2.28;;;0.85;;
61003;SDS011;46889;37.310;13.582;2023-03-01T05:05:26;3.22;;;1.10;;
61003;SDS011;46889;37.310;13.582;2023-03-01T05:07:55;2.35;;;0.93;;
61003;SDS011;46889;37.310;13.582;2023-03-01T05:10:24;3.85;;;0.93;;
61003;SDS011;46889;37.310;13.582;2023-03-01T05:12:57;3.03;;;1.00;;
61003;SDS011;46889;37.310;13.582;2023-03-01T05:15:25;2.95;;;0.80;;
61003;SDS011;46889;37.310;13.582;2023-03-01T05:17:53;5.65;;;1.10;;
61003;SDS011;46889;37.310;13.582;2023-03-01T05:20:20;2.58;;;0.90;;
61003;SDS011;46889;37.310;13.582;2023-03-01T05:22:50;2.60;;;0.77;;
61003;SDS011;46889;37.310;13.582;2023-03-01T05:25:17;5.03;;;1.00;;
61003;SDS011;46889;37.310;13.582;2023-03-01T05:27:44;3.00;;;0.90;;
61003;SDS011;46889;37.310;13.582;2023-03-01T05:30:11;13.10;;;1.85;;
61003;SDS011;46889;37.310;13.582;2023-03-01T05:32:43;2.67;;;1.00;;
61003;SDS011;46889;37.310;13.582;2023-03-01T05:35:15;4.00;;;1.00;;
61003;SDS011;46889;37.310;13.582;2023-03-01T05:37:46;4.40;;;1.10;;
61003;SDS011;46889;37.310;13.582;2023-03-01T05:40:15;5.50;;;1.58;;
61003;SDS011;46889;37.310;13.582;2023-03-01T05:42:47;2.83;;;1.35;;
61003;SDS011;46889;37.310;13.582;2023-03-01T05:45:25;5.03;;;1.33;;
61003;SDS011;46889;37.310;13.582;2023-03-01T05:47:53;11.10;;;1.50;;
61003;SDS011;46889;37.310;13.582;2023-03-01T05:50:22;11.23;;;2.03;;
61003;SDS011;46889;37.310;13.582;2023-03-01T05:52:51;7.03;;;1.88;;
61003;SDS011;46889;37.310;13.582;2023-03-01T05:55:24;12.25;;;1.92;;
61003;SDS011;46889;37.310;13.582;2023-03-01T05:57:50;8.65;;;1.77;;
61003;SDS011;46889;37.310;13.582;2023-03-01T06:00:17;3.20;;;1.33;;
61003;SDS011;46889;37.310;13.582;2023-03-01T06:02:44;6.15;;;1.00;;
61003;SDS011;46889;37.310;13.582;2023-03-01T06:05:11;6.00;;;1.40;;
61003;SDS011;46889;37.310;13.582;2023-03-01T06:07:40;6.60;;;1.52;;
61003;SDS011;46889;37.310;13.582;2023-03-01T06:10:08;4.00;;;1.20;;
61003;SDS011;46889;37.310;13.582;2023-03-01T06:12:36;18.88;;;10.90;;
61003;SDS011;46889;37.310;13.582;2023-03-01T06:15:03;3.70;;;1.10;;
61003;SDS011;46889;37.310;13.582;2023-03-01T06:17:31;4.75;;;1.10;;
61003;SDS011;46889;37.310;13.582;2023-03-01T06:20:12;8.57;;;2.38;;
61003;SDS011;46889;37.310;13.582;2023-03-01T06:22:41;8.95;;;1.40;;
61003;SDS011;46889;37.310;13.582;2023-03-01T06:25:09;4.60;;;1.10;;
61003;SDS011;46889;37.310;13.582;2023-03-01T06:27:38;5.28;;;1.20;;
61003;SDS011;46889;37.310;13.582;2023-03-01T06:30:06;4.38;;;1.20;;
61003;SDS011;46889;37.310;13.582;2023-03-01T06:32:36;6.65;;;1.20;;
61003;SDS011;46889;37.310;13.582;2023-03-01T06:35:03;5.63;;;1.30;;
61003;SDS011;46889;37.310;13.582;2023-03-01T06:37:30;5.38;;;1.30;;
61003;SDS011;46889;37.310;13.582;2023-03-01T06:39:57;9.23;;;1.33;;
61003;SDS011;46889;37.310;13.582;2023-03-01T06:42:23;8.45;;;1.55;;
61003;SDS011;46889;37.310;13.582;2023-03-01T06:44:49;5.63;;;1.42;;
61003;SDS011;46889;37.310;13.582;2023-03-01T06:47:15;5.28;;;1.55;;
61003;SDS011;46889;37.310;13.582;2023-03-01T06:49:41;6.15;;;1.63;;
61003;SDS011;46889;37.310;13.582;2023-03-01T06:54:34;4.82;;;1.17;;
61003;SDS011;46889;37.310;13.582;2023-03-01T06:57:00;5.22;;;1.58;;
61003;SDS011;46889;37.310;13.582;2023-03-01T06:59:26;4.80;;;1.40;;
61003;SDS011;46889;37.310;13.582;2023-03-01T07:01:52;5.63;;;1.05;;
61003;SDS011;46889;37.310;13.582;2023-03-01T07:04:18;14.70;;;1.63;;
61003;SDS011;46889;37.310;13.582;2023-03-01T07:06:44;5.03;;;1.23;;
61003;SDS011;46889;37.310;13.582;2023-03-01T07:09:10;6.78;;;1.75;;
61003;SDS011;46889;37.310;13.582;2023-03-01T07:11:37;7.00;;;1.52;;
61003;SDS011;46889;37.310;13.582;2023-03-01T07:14:03;7.75;;;1.63;;
61003;SDS011;46889;37.310;13.582;2023-03-01T07:16:32;4.18;;;1.35;;
61003;SDS011;46889;37.310;13.582;2023-03-01T07:18:58;6.68;;;1.73;;
61003;SDS011;46889;37.310;13.582;2023-03-01T07:21:24;8.05;;;1.20;;
61003;SDS011;46889;37.310;13.582;2023-03-01T07:23:50;10.98;;;1.58;;
61003;SDS011;46889;37.310;13.582;2023-03-01T07:26:18;5.35;;;1.20;;
61003;SDS011;46889;37.310;13.582;2023-03-01T07:28:44;5.97;;;0.95;;
61003;SDS011;46889;37.310;13.582;2023-03-01T07:31:10;9.35;;;1.10;;
61003;SDS011;46889;37.310;13.582;2023-03-01T07:33:37;10.82;;;1.70;;
61003;SDS011;46889;37.310;13.582;2023-03-01T07:36:06;3.72;;;1.40;;
61003;SDS011;46889;37.310;13.582;2023-03-01T07:38:33;12.90;;;1.80;;
61003;SDS011;46889;37.310;13.582;2023-03-01T08:27:34;5.38;;;1.17;;
61003;SDS011;46889;37.310;13.582;2023-03-01T08:30:02;2.53;;;1.00;;
61003;SDS011;46889;37.310;13.582;2023-03-01T08:32:29;5.53;;;1.20;;
61003;SDS011;46889;37.310;13.582;2023-03-01T08:34:55;8.52;;;1.27;;
61003;SDS011;46889;37.310;13.582;2023-03-01T08:37:22;9.82;;;1.85;;
61003;SDS011;46889;37.310;13.582;2023-03-01T08:39:48;8.93;;;1.20;;
61003;SDS011;46889;37.310;13.582;2023-03-01T08:42:16;18.60;;;2.20;;
61003;SDS011;46889;37.310;13.582;2023-03-01T08:44:44;44.63;;;4.93;;
61003;SDS011;46889;37.310;13.582;2023-03-01T08:47:12;6.65;;;1.63;;
61003;SDS011;46889;37.310;13.582;2023-03-01T08:49:39;20.15;;;2.25;;
61003;SDS011;46889;37.310;13.582;2023-03-01T08:52:05;23.00;;;2.13;;
61003;SDS011;46889;37.310;13.582;2023-03-01T08:54:31;6.47;;;1.38;;
61003;SDS011;46889;37.310;13.582;2023-03-01T08:56:57;5.25;;;1.30;;
61003;SDS011;46889;37.310;13.582;2023-03-01T08:59:26;7.20;;;1.58;;
61003;SDS011;46889;37.310;13.582;2023-03-01T09:01:52;9.13;;;1.20;;
61003;SDS011;46889;37.310;13.582;2023-03-01T09:04:18;9.93;;;3.28;;
61003;SDS011;46889;37.310;13.582;2023-03-01T09:06:44;9.65;;;1.55;;
61003;SDS011;46889;37.310;13.582;2023-03-01T09:09:12;10.23;;;2.13;;
61003;SDS011;46889;37.310;13.582;2023-03-01T09:11:41;15.50;;;2.13;;
61003;SDS011;46889;37.310;13.582;2023-03-01T09:14:08;5.68;;;1.52;;
61003;SDS011;46889;37.310;13.582;2023-03-01T09:16:34;17.48;;;2.03;;
61003;SDS011;46889;37.310;13.582;2023-03-01T09:19:01;6.57;;;1.42;;
61003;SDS011;46889;37.310;13.582;2023-03-01T09:21:28;3.78;;;1.10;;
61003;SDS011;46889;37.310;13.582;2023-03-01T09:23:55;5.33;;;1.23;;
61003;SDS011;46889;37.310;13.582;2023-03-01T09:26:22;9.13;;;1.30;;
61003;SDS011;46889;37.310;13.582;2023-03-01T09:28:50;9.60;;;1.42;;
61003;SDS011;46889;37.310;13.582;2023-03-01T09:31:20;7.03;;;1.20;;
61003;SDS011;46889;37.310;13.582;2023-03-01T09:33:52;7.32;;;1.40;;
61003;SDS011;46889;37.310;13.582;2023-03-01T09:36:21;8.57;;;1.75;;
61003;SDS011;46889;37.310;13.582;2023-03-01T09:38:50;8.18;;;1.55;;
61003;SDS011;46889;37.310;13.582;2023-03-01T09:43:59;6.57;;;1.10;;
61003;SDS011;46889;37.310;13.582;2023-03-01T09:46:42;9.75;;;1.33;;
61003;SDS011;46889;37.310;13.582;2023-03-01T09:49:21;16.00;;;1.92;;
61003;SDS011;46889;37.310;13.582;2023-03-01T09:54:46;7.57;;;1.70;;
61003;SDS011;46889;37.310;13.582;2023-03-01T09:57:17;9.57;;;1.15;;
61003;SDS011;46889;37.310;13.582;2023-03-01T10:00:12;13.68;;;1.85;;
61003;SDS011;46889;37.310;13.582;2023-03-01T10:08:02;8.52;;;1.73;;
61003;SDS011;46889;37.310;13.582;2023-03-01T10:10:44;10.95;;;1.25;;
61003;SDS011;46889;37.310;13.582;2023-03-01T10:13:52;9.27;;;1.10;;
61003;SDS011;46889;37.310;13.582;2023-03-01T10:16:41;10.30;;;1.38;;
61003;SDS011;46889;37.310;13.582;2023-03-01T10:19:39;12.48;;;1.85;;
61003;SDS011;46889;37.310;13.582;2023-03-01T10:22:26;10.93;;;1.60;;
61003;SDS011;46889;37.310;13.582;2023-03-01T10:24:55;8.27;;;1.50;;
61003;SDS011;46889;37.310;13.582;2023-03-01T10:27:24;9.45;;;1.45;;
61003;SDS011;46889;37.310;13.582;2023-03-01T10:32:41;15.00;;;2.00;;
61003;SDS011;46889;37.310;13.582;2023-03-01T10:35:16;10.43;;;1.40;;
61003;SDS011;46889;37.310;13.582;2023-03-01T10:37:58;14.38;;;2.55;;
61003;SDS011;46889;37.310;13.582;2023-03-01T10:40:27;18.38;;;2.75;;
61003;SDS011;46889;37.310;13.582;2023-03-01T10:42:54;16.60;;;2.42;;
61003;SDS011;46889;37.310;13.582;2023-03-01T10:51:04;18.98;;;1.63;;
61003;SDS011;46889;37.310;13.582;2023-03-01T10:53:33;19.65;;;2.55;;
61003;SDS011;46889;37.310;13.582;2023-03-01T10:56:07;13.45;;;2.33;;
61003;SDS011;46889;37.310;13.582;2023-03-01T10:58:39;13.88;;;2.03;;
61003;SDS011;46889;37.310;13.582;2023-03-01T11:01:28;18.50;;;2.03;;
61003;SDS011;46889;37.310;13.582;2023-03-01T11:04:17;22.10;;;2.40;;
61003;SDS011;46889;37.310;13.582;2023-03-01T11:06:44;18.23;;;2.03;;
61003;SDS011;46889;37.310;13.582;2023-03-01T11:09:24;16.70;;;2.20;;
61003;SDS011;46889;37.310;13.582;2023-03-01T11:11:55;17.77;;;2.30;;
61003;SDS011;46889;37.310;13.582;2023-03-01T11:14:35;12.70;;;2.20;;
61003;SDS011;46889;37.310;13.582;2023-03-01T11:20:00;13.52;;;2.22;;
61003;SDS011;46889;37.310;13.582;2023-03-01T11:22:53;15.40;;;1.85;;
61003;SDS011;46889;37.310;13.582;2023-03-01T11:25:23;23.55;;;2.15;;
61003;SDS011;46889;37.310;13.582;2023-03-01T11:27:54;22.25;;;2.30;;
61003;SDS011;46889;37.310;13.582;2023-03-01T11:30:29;15.07;;;2.10;;
61003;SDS011;46889;37.310;13.582;2023-03-01T11:35:37;24.85;;;2.20;;
61003;SDS011;46889;37.310;13.582;2023-03-01T11:38:29;21.70;;;2.10;;
61003;SDS011;46889;37.310;13.582;2023-03-01T11:41:05;20.48;;;2.40;;
61003;SDS011;46889;37.310;13.582;2023-03-01T11:43:53;19.88;;;2.60;;
61003;SDS011;46889;37.310;13.582;2023-03-01T11:49:48;16.80;;;1.63;;
61003;SDS011;46889;37.310;13.582;2023-03-01T11:55:46;25.90;;;2.75;;
61003;SDS011;46889;37.310;13.582;2023-03-01T12:03:47;44.15;;;4.20;;
61003;SDS011;46889;37.310;13.582;2023-03-01T12:09:31;30.58;;;3.45;;
61003;SDS011;46889;37.310;13.582;2023-03-01T12:15:07;35.25;;;3.42;;
61003;SDS011;46889;37.310;13.582;2023-03-01T12:17:52;42.17;;;3.78;;
61003;SDS011;46889;37.310;13.582;2023-03-01T12:31:59;25.38;;;3.33;;
61003;SDS011;46889;37.310;13.582;2023-03-01T12:37:24;19.23;;;2.28;;
61003;SDS011;46889;37.310;13.582;2023-03-01T12:42:55;24.15;;;3.58;;
61003;SDS011;46889;37.310;13.582;2023-03-01T12:51:24;16.73;;;1.75;;
61003;SDS011;46889;37.310;13.582;2023-03-01T12:53:53;14.15;;;1.42;;
61003;SDS011;46889;37.310;13.582;2023-03-01T12:56:23;15.88;;;1.83;;
61003;SDS011;46889;37.310;13.582;2023-03-01T13:02:13;11.93;;;1.60;;
61003;SDS011;46889;37.310;13.582;2023-03-01T13:04:54;16.42;;;1.65;;
61003;SDS011;46889;37.310;13.582;2023-03-01T13:07:53;13.48;;;1.58;;
61003;SDS011;46889;37.310;13.582;2023-03-01T13:10:34;11.60;;;1.60;;
61003;SDS011;46889;37.310;13.582;2023-03-01T13:13:22;9.63;;;1.55;;
61003;SDS011;46889;37.310;13.582;2023-03-01T13:15:50;9.45;;;1.65;;
61003;SDS011;46889;37.310;13.582;2023-03-01T13:20:57;8.73;;;1.40;;
61003;SDS011;46889;37.310;13.582;2023-03-01T13:26:03;13.48;;;1.70;;
61003;SDS011;46889;37.310;13.582;2023-03-01T13:34:09;11.48;;;1.80;;
61003;SDS011;46889;37.310;13.582;2023-03-01T13:37:18;13.02;;;1.50;;
61003;SDS011;46889;37.310;13.582;2023-03-01T13:39:47;7.75;;;1.27;;
61003;SDS011;46889;37.310;13.582;2023-03-01T13:47:44;9.63;;;1.92;;
61003;SDS011;46889;37.310;13.582;2023-03-01T13:50:21;10.38;;;1.30;;
61003;SDS011;46889;37.310;13.582;2023-03-01T13:52:53;8.10;;;1.63;;
61003;SDS011;46889;37.310;13.582;2023-03-01T13:58:26;11.88;;;1.60;;
61003;SDS011;46889;37.310;13.582;2023-03-01T14:00:57;11.50;;;1.90;;
61003;SDS011;46889;37.310;13.582;2023-03-01T14:03:25;11.45;;;1.63;;
61003;SDS011;46889;37.310;13.582;2023-03-01T14:06:03;6.35;;;1.20;;
61003;SDS011;46889;37.310;13.582;2023-03-01T14:08:45;12.07;;;1.65;;
61003;SDS011;46889;37.310;13.582;2023-03-01T14:16:45;8.93;;;1.17;;
61003;SDS011;46889;37.310;13.582;2023-03-01T14:19:16;18.98;;;2.08;;
61003;SDS011;46889;37.310;13.582;2023-03-01T14:21:46;9.52;;;1.50;;
61003;SDS011;46889;37.310;13.582;2023-03-01T14:24:33;10.57;;;1.55;;
61003;SDS011;46889;37.310;13.582;2023-03-01T14:27:10;12.27;;;1.58;;
61003;SDS011;46889;37.310;13.582;2023-03-01T14:29:38;8.15;;;1.50;;
61003;SDS011;46889;37.310;13.582;2023-03-01T14:32:11;7.47;;;1.38;;
61003;SDS011;46889;37.310;13.582;2023-03-01T14:34:46;11.00;;;1.45;;
61003;SDS011;46889;37.310;13.582;2023-03-01T14:37:19;10.40;;;1.42;;
61003;SDS011;46889;37.310;13.582;2023-03-01T14:39:48;9.77;;;2.03;;
61003;SDS011;46889;37.310;13.582;2023-03-01T14:42:16;12.27;;;1.60;;
61003;SDS011;46889;37.310;13.582;2023-03-01T14:44:48;9.02;;;1.60;;
61003;SDS011;46889;37.310;13.582;2023-03-01T14:47:27;12.40;;;1.90;;
61003;SDS011;46889;37.310;13.582;2023-03-01T14:50:01;9.15;;;1.60;;
61003;SDS011;46889;37.310;13.582;2023-03-01T14:52:33;11.43;;;1.20;;
61003;SDS011;46889;37.310;13.582;2023-03-01T14:55:02;6.78;;;1.10;;
61003;SDS011;46889;37.310;13.582;2023-03-01T14:57:31;10.13;;;1.23;;
61003;SDS011;46889;37.310;13.582;2023-03-01T14:59:58;6.60;;;1.43;;
61003;SDS011;46889;37.310;13.582;2023-03-01T15:02:28;10.35;;;1.70;;
61003;SDS011;46889;37.310;13.582;2023-03-01T15:04:56;7.95;;;1.00;;
61003;SDS011;46889;37.310;13.582;2023-03-01T15:07:33;11.65;;;1.05;;
61003;SDS011;46889;37.310;13.582;2023-03-01T15:10:02;6.00;;;1.05;;
61003;SDS011;46889;37.310;13.582;2023-03-01T15:14:56;6.80;;;1.73;;
61003;SDS011;46889;37.310;13.582;2023-03-01T15:17:44;5.50;;;0.88;;
61003;SDS011;46889;37.310;13.582;2023-03-01T15:20:17;6.55;;;1.02;;
61003;SDS011;46889;37.310;13.582;2023-03-01T15:22:46;5.47;;;1.00;;
61003;SDS011;46889;37.310;13.582;2023-03-01T15:25:43;6.78;;;1.17;;
61003;SDS011;46889;37.310;13.582;2023-03-01T15:28:12;5.95;;;1.70;;
61003;SDS011;46889;37.310;13.582;2023-03-01T15:30:51;5.57;;;0.90;;
61003;SDS011;46889;37.310;13.582;2023-03-01T15:33:48;9.77;;;1.45;;
61003;SDS011;46889;37.310;13.582;2023-03-01T15:36:33;6.82;;;1.20;;
61003;SDS011;46889;37.310;13.582;2023-03-01T15:42:56;6.28;;;1.00;;
61003;SDS011;46889;37.310;13.582;2023-03-01T15:47:46;9.00;;;1.00;;
61003;SDS011;46889;37.310;13.582;2023-03-01T15:50:19;9.95;;;1.30;;
61003;SDS011;46889;37.310;13.582;2023-03-01T15:53:07;7.50;;;1.48;;
61003;SDS011;46889;37.310;13.582;2023-03-01T15:55:39;6.13;;;0.98;;
61003;SDS011;46889;37.310;13.582;2023-03-01T15:58:10;6.97;;;0.88;;
61003;SDS011;46889;37.310;13.582;2023-03-01T16:00:39;9.48;;;1.20;;
61003;SDS011;46889;37.310;13.582;2023-03-01T16:03:06;9.63;;;1.48;;
61003;SDS011;46889;37.310;13.582;2023-03-01T16:05:36;10.00;;;1.52;;
61003;SDS011;46889;37.310;13.582;2023-03-01T16:08:08;6.35;;;0.90;;
61003;SDS011;46889;37.310;13.582;2023-03-01T16:10:34;5.28;;;1.33;;
61003;SDS011;46889;37.310;13.582;2023-03-01T16:13:01;5.05;;;1.00;;
61003;SDS011;46889;37.310;13.582;2023-03-01T16:15:29;4.72;;;0.90;;
61003;SDS011;46889;37.310;13.582;2023-03-01T16:17:57;13.05;;;1.25;;
61003;SDS011;46889;37.310;13.582;2023-03-01T16:20:24;6.45;;;1.17;;
61003;SDS011;46889;37.310;13.582;2023-03-01T16:22:51;10.55;;;1.50;;
61003;SDS011;46889;37.310;13.582;2023-03-01T16:25:18;5.40;;;1.23;;
61003;SDS011;46889;37.310;13.582;2023-03-01T16:27:46;7.90;;;1.30;;
61003;SDS011;46889;37.310;13.582;2023-03-01T16:30:16;13.60;;;1.40;;
61003;SDS011;46889;37.310;13.582;2023-03-01T16:32:45;7.70;;;1.35;;
61003;SDS011;46889;37.310;13.582;2023-03-01T16:35:33;7.70;;;1.45;;
61003;SDS011;46889;37.310;13.582;2023-03-01T16:38:04;7.88;;;2.15;;
61003;SDS011;46889;37.310;13.582;2023-03-01T16:40:30;10.50;;;1.70;;
61003;SDS011;46889;37.310;13.582;2023-03-01T16:45:33;6.53;;;1.25;;
61003;SDS011;46889;37.310;13.582;2023-03-01T16:48:00;7.90;;;1.20;;
61003;SDS011;46889;37.310;13.582;2023-03-01T16:50:33;9.23;;;1.42;;
61003;SDS011;46889;37.310;13.582;2023-03-01T16:52:59;7.10;;;1.30;;
61003;SDS011;46889;37.310;13.582;2023-03-01T16:55:26;10.75;;;1.30;;
61003;SDS011;46889;37.310;13.582;2023-03-01T16:58:13;7.30;;;1.10;;
61003;SDS011;46889;37.310;13.582;2023-03-01T17:00:40;6.07;;;1.30;;
61003;SDS011;46889;37.310;13.582;2023-03-01T17:03:06;6.90;;;1.20;;
61003;SDS011;46889;37.310;13.582;2023-03-01T17:05:32;7.38;;;1.35;;
61003;SDS011;46889;37.310;13.582;2023-03-01T17:08:18;9.13;;;2.10;;
61003;SDS011;46889;37.310;13.582;2023-03-01T17:10:45;12.52;;;1.88;;
61003;SDS011;46889;37.310;13.582;2023-03-01T17:13:11;4.97;;;1.10;;
61003;SDS011;46889;37.310;13.582;2023-03-01T17:15:40;6.73;;;1.40;;
61003;SDS011;46889;37.310;13.582;2023-03-01T17:18:06;5.32;;;1.48;;
61003;SDS011;46889;37.310;13.582;2023-03-01T17:20:34;3.95;;;1.40;;
61003;SDS011;46889;37.310;13.582;2023-03-01T17:23:00;11.93;;;1.30;;
61003;SDS011;46889;37.310;13.582;2023-03-01T17:25:30;10.95;;;1.70;;
61003;SDS011;46889;37.310;13.582;2023-03-01T17:27:57;4.75;;;1.20;;
61003;SDS011;46889;37.310;13.582;2023-03-01T17:30:24;10.93;;;1.58;;
61003;SDS011;46889;37.310;13.582;2023-03-01T17:32:54;8.80;;;1.30;;
61003;SDS011;46889;37.310;13.582;2023-03-01T17:35:21;6.83;;;1.50;;
61003;SDS011;46889;37.310;13.582;2023-03-01T17:37:47;13.35;;;1.90;;
61003;SDS011;46889;37.310;13.582;2023-03-01T17:42:39;9.07;;;1.30;;
61003;SDS011;46889;37.310;13.582;2023-03-01T17:45:07;8.45;;;1.48;;
61003;SDS011;46889;37.310;13.582;2023-03-01T17:47:33;7.05;;;2.00;;